Time;durP1;ratioP1;P1;durP2;ratioP2;P2;SDS_P1;SDS_P2;PMS_P1;PMS_P2;Temp;Humidity;BMP_temperature;BMP_pressure;BME280_temperature;BME280_humidity;BME280_pressure;Samples;Min_cycle;Max_cycle;Signal;HPM_P1;HPM_P2
2024/01/19 00:00:10;;;;;;;2.23;1.17;;;;;;;4.03;57.84;99981.13;4877422;29;20471;-84
2024/01/19 00:02:36;;;;;;;0.60;0.40;;;;;;;4.14;57.53;99985.38;4876413;29;20408;-84
2024/01/19 00:05:07;;;;;;;1.30;0.70;;;;;;;4.23;57.31;99984.47;4875982;29;20998;-83
2024/01/19 00:07:33;;;;;;;1.60;0.60;;;;;;;4.13;57.00;99978.47;4876851;29;20438;-84
2024/01/19 00:09:59;;;;;;;1.30;0.50;;;;;;;4.10;57.36;99974.34;4877794;29;20396;-84
2024/01/19 00:12:25;;;;;;;1.23;0.87;;;;;;;4.19;57.35;99980.50;4887346;29;20477;-86
2024/01/19 00:14:50;;;;;;;0.80;0.70;;;;;;;4.14;57.30;99980.13;4872342;29;20478;-85
2024/01/19 00:17:16;;;;;;;0.50;0.50;;;;;;;4.09;57.64;99996.31;4889616;29;20392;-82
2024/01/19 00:19:45;;;;;;;0.90;0.90;;;;;;;4.16;57.28;99992.13;4878789;29;20408;-83
2024/01/19 00:22:10;;;;;;;0.50;0.45;;;;;;;4.28;57.11;99998.00;4874469;29;20916;-84
2024/01/19 00:24:36;;;;;;;0.60;0.40;;;;;;;4.49;56.70;99992.47;4875111;29;20464;-84
2024/01/19 00:27:02;;;;;;;3.87;1.10;;;;;;;4.60;56.37;99994.88;4872275;29;20436;-85
2024/01/19 00:29:28;;;;;;;0.40;0.40;;;;;;;4.65;55.88;99999.69;4873907;29;20402;-85
2024/01/19 00:31:54;;;;;;;0.68;0.68;;;;;;;4.67;55.76;100002.19;4874923;29;20431;-85
2024/01/19 00:34:20;;;;;;;1.10;0.60;;;;;;;4.67;55.72;100000.38;4875942;29;20446;-84
2024/01/19 00:36:45;;;;;;;0.30;0.30;;;;;;;4.67;55.69;99995.13;4876370;29;20400;-84
2024/01/19 00:39:11;;;;;;;0.40;0.40;;;;;;;4.71;55.74;99990.41;4877325;29;20968;-84
2024/01/19 00:41:37;;;;;;;1.10;1.00;;;;;;;4.76;55.65;99994.22;4875895;29;20416;-84
2024/01/19 00:44:02;;;;;;;0.20;0.20;;;;;;;4.78;55.40;99978.31;4875566;29;20432;-86
2024/01/19 00:46:30;;;;;;;0.30;0.30;;;;;;;4.71;55.44;99974.66;4875222;29;20408;-85
2024/01/19 00:48:59;;;;;;;0.22;0.22;;;;;;;4.82;55.53;99981.47;4875335;29;20856;-84
2024/01/19 00:51:25;;;;;;;0.30;0.30;;;;;;;4.89;55.60;99974.63;4875832;29;20404;-85
2024/01/19 00:53:50;;;;;;;0.43;0.40;;;;;;;4.91;55.46;99970.88;4876473;29;20408;-84
2024/01/19 00:56:17;;;;;;;0.60;0.60;;;;;;;4.93;55.34;99965.47;4878204;29;20426;-84
2024/01/19 00:58:44;;;;;;;0.40;0.40;;;;;;;4.92;55.50;99966.47;4881564;29;20444;-85
2024/01/19 01:01:12;;;;;;;1.20;0.90;;;;;;;4.89;55.61;99964.94;4896702;29;20420;-85
2024/01/19 01:03:37;;;;;;;0.55;0.55;;;;;;;4.94;55.20;99960.06;4898840;29;20400;-85
2024/01/19 01:06:06;;;;;;;1.00;0.73;;;;;;;5.02;55.40;99964.56;4899063;29;20405;-86
2024/01/19 01:08:36;;;;;;;0.40;0.40;;;;;;;5.01;55.27;99959.50;4898266;29;20483;-85
2024/01/19 01:11:05;;;;;;;1.10;1.02;;;;;;;5.00;55.15;99963.88;4892308;29;20410;-87
2024/01/19 01:13:31;;;;;;;1.10;1.10;;;;;;;5.04;55.68;99983.66;4885021;29;20895;-84
2024/01/19 01:15:57;;;;;;;1.00;0.90;;;;;;;5.01;55.52;99983.94;4874579;29;20418;-84
2024/01/19 01:18:23;;;;;;;1.00;0.95;;;;;;;4.96;55.88;99987.00;4874749;29;21140;-86
2024/01/19 01:20:50;;;;;;;0.60;0.60;;;;;;;4.96;55.35;99978.31;4874978;29;20394;-84
2024/01/19 01:23:18;;;;;;;0.95;0.85;;;;;;;4.95;55.51;99979.28;4874160;29;20399;-84
2024/01/19 01:25:44;;;;;;;0.57;0.57;;;;;;;5.04;55.88;99975.75;4875410;29;20392;-85
2024/01/19 01:28:09;;;;;;;0.30;0.30;;;;;;;5.04;55.55;99974.91;4875984;29;20957;-85
2024/01/19 01:30:35;;;;;;;0.77;0.77;;;;;;;5.01;55.17;99962.09;4876510;29;20399;-85
2024/01/19 01:33:01;;;;;;;0.77;0.77;;;;;;;4.94;55.65;99967.94;4874906;29;20479;-84
2024/01/19 01:35:26;;;;;;;0.45;0.45;;;;;;;4.97;55.45;99972.09;4876080;29;20500;-84
2024/01/19 01:37:54;;;;;;;0.20;0.20;;;;;;;5.08;55.60;99974.47;4876901;29;20408;-84
2024/01/19 01:40:19;;;;;;;0.60;0.50;;;;;;;5.10;55.13;99980.41;4876046;29;20491;-85
2024/01/19 01:42:45;;;;;;;0.60;0.40;;;;;;;5.16;55.20;99984.22;4876953;29;20839;-84
2024/01/19 01:45:13;;;;;;;0.47;0.30;;;;;;;5.15;54.96;99986.03;4875039;29;20407;-84
2024/01/19 01:51:11;;;;;;;2.70;1.33;;;;;;;5.12;55.39;99988.94;4871676;29;21032;-84
2024/01/19 01:53:40;;;;;;;2.17;0.93;;;;;;;5.15;54.89;99983.41;4876403;29;20472;-85
2024/01/19 01:56:27;;;;;;;1.60;0.75;;;;;;;5.09;54.73;99976.09;4893180;29;20388;-84
2024/01/19 01:58:54;;;;;;;1.70;1.27;;;;;;;5.04;54.74;99990.69;4884399;29;20411;-83
2024/01/19 02:01:49;;;;;;;4.35;2.00;;;;;;;4.90;55.30;99989.44;4884254;29;20435;-84
2024/01/19 02:05:07;;;;;;;;;;;;;;;;;;;;;
2024/01/19 02:08:22;;;;;;;5.78;1.30;;;;;;;5.03;55.57;99994.31;4877319;29;20466;-84
2024/01/19 02:15:37;;;;;;;1.20;0.47;;;;;;;5.11;55.09;100002.22;4846635;29;20478;-84
2024/01/19 02:21:15;;;;;;;0.45;0.45;;;;;;;5.25;55.21;99995.63;4833222;29;21053;-84
2024/01/19 02:23:53;;;;;;;1.90;1.02;;;;;;;5.16;55.11;99986.84;4833523;29;20407;-85
2024/01/19 02:26:22;;;;;;;0.90;0.90;;;;;;;5.05;55.35;99977.41;4862277;29;20426;-85
2024/01/19 02:28:49;;;;;;;0.52;0.52;;;;;;;5.03;55.57;99973.28;4877077;29;20994;-85
2024/01/19 02:31:15;;;;;;;0.60;0.50;;;;;;;5.06;55.65;99980.84;4877294;29;20589;-85
2024/01/19 02:33:40;;;;;;;0.93;0.88;;;;;;;5.00;55.60;99976.22;4877460;29;20500;-84
2024/01/19 02:36:06;;;;;;;0.40;0.40;;;;;;;5.04;55.34;99973.13;4877458;29;20396;-85
2024/01/19 02:38:34;;;;;;;0.60;0.50;;;;;;;5.13;55.38;99985.34;4862270;29;20399;-84
2024/01/19 02:41:00;;;;;;;0.40;0.40;;;;;;;5.12;55.14;99981.06;4861734;29;20396;-85
2024/01/19 02:43:26;;;;;;;0.77;0.77;;;;;;;5.13;55.38;99980.09;4876892;29;20426;-85
2024/01/19 02:45:51;;;;;;;0.30;0.30;;;;;;;5.17;54.98;99983.25;4861560;29;20464;-85
2024/01/19 02:48:17;;;;;;;0.30;0.30;;;;;;;5.14;55.09;99973.84;4877888;29;20962;-85
2024/01/19 02:50:42;;;;;;;1.20;0.90;;;;;;;5.20;54.88;99979.47;4878472;29;20396;-85
2024/01/19 02:53:08;;;;;;;0.68;0.68;;;;;;;5.16;55.31;99987.66;4879922;29;20399;-85
2024/01/19 02:55:33;;;;;;;0.70;0.70;;;;;;;5.17;55.03;99988.50;4880175;29;20434;-85
2024/01/19 02:57:59;;;;;;;0.37;0.37;;;;;;;5.15;55.36;99988.66;4880195;29;20483;-84
2024/01/19 03:00:25;;;;;;;0.30;0.30;;;;;;;5.12;55.23;99988.94;4879607;29;20404;-85
2024/01/19 03:02:50;;;;;;;0.27;0.27;;;;;;;5.19;55.21;99985.72;4879769;29;20399;-85
2024/01/19 03:05:16;;;;;;;0.73;0.73;;;;;;;5.29;54.86;99989.06;4878146;29;20411;-84
2024/01/19 03:07:42;;;;;;;0.65;0.65;;;;;;;5.26;55.12;99992.03;4876561;29;20474;-85
2024/01/19 03:10:07;;;;;;;0.30;0.30;;;;;;;5.22;54.87;99994.13;4876547;29;20407;-85
2024/01/19 03:12:33;;;;;;;0.70;0.70;;;;;;;5.24;54.98;99988.69;4877221;29;20408;-85
2024/01/19 03:14:59;;;;;;;0.40;0.30;;;;;;;5.23;55.16;99981.81;4878413;29;20854;-85
2024/01/19 03:17:27;;;;;;;0.73;0.73;;;;;;;5.13;55.10;99995.00;4876481;29;20396;-83
2024/01/19 03:19:52;;;;;;;0.50;0.50;;;;;;;4.87;55.70;99993.16;4877008;29;20416;-85
2024/01/19 03:22:18;;;;;;;0.95;0.95;;;;;;;4.96;55.88;99979.13;4877848;29;20392;-85
2024/01/19 03:24:44;;;;;;;0.80;0.80;;;;;;;5.08;55.78;99969.22;4877827;29;20392;-85
2024/01/19 03:27:09;;;;;;;0.67;0.67;;;;;;;5.14;55.70;99973.84;4877617;29;20412;-85
2024/01/19 03:29:35;;;;;;;0.83;0.83;;;;;;;5.20;55.58;99975.03;4877516;29;20406;-85
2024/01/19 03:32:00;;;;;;;3.70;2.37;;;;;;;5.01;55.77;99983.13;4877328;29;20832;-84
2024/01/19 03:34:26;;;;;;;1.02;0.93;;;;;;;4.93;56.01;99974.19;4878563;29;20392;-85
2024/01/19 03:36:52;;;;;;;0.70;0.70;;;;;;;5.10;55.58;99969.88;4876964;29;20396;-84
2024/01/19 03:39:18;;;;;;;0.70;0.50;;;;;;;5.17;55.71;99978.00;4878486;29;20396;-84
2024/01/19 03:41:44;;;;;;;0.80;0.60;;;;;;;5.05;55.41;99976.59;4877677;29;20414;-85
2024/01/19 03:44:09;;;;;;;0.80;0.77;;;;;;;4.92;56.41;100001.44;4893465;29;20396;-84
2024/01/19 03:46:35;;;;;;;1.57;1.47;;;;;;;4.84;56.34;100000.53;4892647;29;20407;-84
2024/01/19 03:49:01;;;;;;;1.17;0.82;;;;;;;4.75;57.00;99992.59;4892176;29;20495;-85
2024/01/19 03:51:26;;;;;;;1.30;1.20;;;;;;;4.92;56.50;99990.91;4890213;29;20407;-84
2024/01/19 03:53:55;;;;;;;0.50;0.50;;;;;;;5.11;56.22;99989.94;4876175;29;20429;-84
2024/01/19 03:56:29;;;;;;;0.90;0.85;;;;;;;4.95;56.44;100003.75;4878731;29;20403;-88
2024/01/19 03:59:00;;;;;;;1.33;1.23;;;;;;;4.93;56.82;100018.84;4877847;29;20831;-85
2024/01/19 04:01:26;;;;;;;1.15;1.05;;;;;;;4.98;56.50;100002.63;4895541;29;20411;-83
2024/01/19 04:04:33;;;;;;;0.67;0.60;;;;;;;5.13;56.72;100013.41;4886844;29;20407;-86
2024/01/19 04:07:05;;;;;;;2.15;1.50;;;;;;;5.10;56.38;100003.22;4875206;29;20800;-86
2024/01/19 04:10:01;;;;;;;1.75;1.30;;;;;;;5.06;56.98;100010.59;4875654;29;20423;-86
2024/01/19 04:13:10;;;;;;;4.15;2.15;;;;;;;5.06;56.70;100009.72;4872604;29;20526;-86
2024/01/19 04:26:34;;;;;;;1.10;0.90;;;;;;;5.29;56.62;100018.78;4858863;29;20491;-86
2024/01/19 04:32:16;;;;;;;2.50;1.73;;;;;;;4.86;57.54;100048.47;4855867;29;20462;-85
2024/01/19 04:34:53;;;;;;;3.00;2.60;;;;;;;4.83;57.57;100031.22;4857235;29;20463;-85
2024/01/19 04:40:50;;;;;;;3.80;1.50;;;;;;;4.86;57.53;100051.94;4801812;29;20414;-86
2024/01/19 04:43:41;;;;;;;;;;;;;;;;;;;;;
2024/01/19 04:46:26;;;;;;;1.70;1.20;;;;;;;5.01;57.28;100062.75;4855454;29;20410;-86
2024/01/19 04:49:04;;;;;;;1.85;1.23;;;;;;;4.78;58.01;100064.97;4856213;29;20422;-85
2024/01/19 04:52:11;;;;;;;0.80;0.65;;;;;;;4.75;57.94;100055.59;4855965;29;20410;-85
2024/01/19 04:54:40;;;;;;;2.85;1.17;;;;;;;4.82;57.80;100053.19;4855840;29;20401;-85
2024/01/19 04:57:12;;;;;;;1.88;0.90;;;;;;;4.87;57.49;100050.94;4856651;29;20941;-86
2024/01/19 04:59:47;;;;;;;1.20;0.80;;;;;;;4.83;57.30;100051.41;4854933;29;20900;-86
2024/01/19 05:02:24;;;;;;;1.83;1.30;;;;;;;4.72;57.67;100055.91;4853898;29;21000;-86
2024/01/19 05:04:56;;;;;;;2.63;1.40;;;;;;;4.76;57.39;100046.72;4853794;29;20401;-86
2024/01/19 05:07:48;;;;;;;1.50;1.00;;;;;;;4.92;57.41;100043.44;4854326;29;20470;-85
2024/01/19 05:10:14;;;;;;;3.42;1.83;;;;;;;4.82;57.41;100047.94;4874876;29;20407;-85
2024/01/19 05:12:43;;;;;;;2.22;1.25;;;;;;;4.84;57.91;100056.47;4873287;29;20938;-84
2024/01/19 05:16:18;;;;;;;0.75;0.50;;;;;;;4.82;57.74;100042.69;4890465;29;20416;-86
2024/01/19 05:18:43;;;;;;;2.20;0.57;;;;;;;4.88;57.79;100054.38;4839220;29;20429;-87
2024/01/19 05:21:14;;;;;;;0.52;0.52;;;;;;;4.93;57.67;100070.53;4855634;29;20414;-85
2024/01/19 05:23:40;;;;;;;1.50;0.80;;;;;;;4.88;57.49;100070.16;4855071;29;20477;-87
2024/01/19 05:26:08;;;;;;;1.35;0.93;;;;;;;4.89;57.89;100066.56;4836980;29;21346;-87
2024/01/19 05:28:41;;;;;;;1.50;1.40;;;;;;;5.03;57.28;100065.22;4838326;29;20446;-84
2024/01/19 05:31:07;;;;;;;1.02;1.02;;;;;;;5.07;57.23;100077.06;4838033;29;20970;-84
2024/01/19 05:33:34;;;;;;;0.47;0.47;;;;;;;5.24;57.26;100072.78;4831713;29;20402;-84
2024/01/19 05:36:01;;;;;;;3.00;2.00;;;;;;;5.25;56.83;100077.88;4860776;29;20409;-87
2024/01/19 05:38:26;;;;;;;0.38;0.38;;;;;;;5.28;57.06;100077.59;4864129;29;20412;-83
2024/01/19 05:40:52;;;;;;;1.23;0.82;;;;;;;5.33;56.88;100075.34;4861967;29;20397;-86
2024/01/19 05:43:17;;;;;;;1.03;0.90;;;;;;;5.42;56.63;100083.28;4869921;29;21036;-85
2024/01/19 05:45:43;;;;;;;3.10;2.10;;;;;;;5.47;56.23;100086.28;4875225;29;20568;-86
2024/01/19 05:48:09;;;;;;;0.80;0.70;;;;;;;5.39;56.65;100094.13;4880742;29;20505;-87
2024/01/19 05:50:37;;;;;;;0.40;0.40;;;;;;;5.32;56.79;100096.50;4880027;29;20407;-84
2024/01/19 05:53:06;;;;;;;1.60;1.15;;;;;;;5.44;56.63;100108.44;4879673;29;21452;-85
2024/01/19 05:55:31;;;;;;;0.53;0.53;;;;;;;5.46;56.31;100088.09;4880388;29;20445;-86
2024/01/19 05:57:57;;;;;;;0.70;0.70;;;;;;;5.48;57.01;100108.97;4866419;29;20419;-85
2024/01/19 06:00:29;;;;;;;2.17;0.70;;;;;;;5.39;56.75;100102.00;4880555;29;20784;-85
2024/01/19 06:03:01;;;;;;;3.15;1.88;;;;;;;5.30;56.93;100094.03;4881501;29;20929;-83
2024/01/19 06:05:29;;;;;;;1.17;1.08;;;;;;;5.34;56.89;100111.13;4893923;29;20408;-84
2024/01/19 06:07:57;;;;;;;1.40;1.30;;;;;;;5.27;57.10;100109.28;4882407;29;20455;-85
2024/01/19 06:10:26;;;;;;;1.38;1.30;;;;;;;5.18;57.09;100108.38;4883014;29;20410;-84
2024/01/19 06:12:51;;;;;;;1.70;1.63;;;;;;;5.11;57.36;100120.44;4883302;29;20790;-85
2024/01/19 06:15:19;;;;;;;2.70;2.30;;;;;;;5.00;57.85;100118.88;4887008;29;20951;-85
2024/01/19 06:17:45;;;;;;;0.60;0.60;;;;;;;5.04;57.98;100116.75;4881479;29;20995;-85
2024/01/19 06:20:11;;;;;;;0.60;0.60;;;;;;;5.16;57.09;100123.47;4881412;29;20403;-84
2024/01/19 06:22:41;;;;;;;0.30;0.30;;;;;;;5.27;57.23;100123.22;4882833;29;20846;-83
2024/01/19 06:25:09;;;;;;;1.63;1.53;;;;;;;5.33;57.04;100127.91;4895584;29;20513;-84
2024/01/19 06:27:34;;;;;;;0.30;0.30;;;;;;;5.41;56.65;100137.66;4885029;29;20502;-84
2024/01/19 06:30:03;;;;;;;2.30;2.10;;;;;;;5.46;56.85;100138.03;4883217;29;20863;-84
2024/01/19 06:32:36;;;;;;;1.08;0.88;;;;;;;5.54;56.80;100153.03;4882478;29;20411;-83
2024/01/19 06:35:05;;;;;;;0.32;0.32;;;;;;;5.50;56.74;100143.81;4884910;29;20471;-85
2024/01/19 06:37:33;;;;;;;0.85;0.85;;;;;;;5.41;56.90;100150.81;4884332;29;20449;-84
2024/01/19 06:40:04;;;;;;;1.15;0.82;;;;;;;5.30;57.38;100145.78;4882550;29;20408;-84
2024/01/19 06:42:31;;;;;;;1.38;1.27;;;;;;;5.31;57.26;100139.53;4881643;29;21218;-84
2024/01/19 06:44:58;;;;;;;2.20;2.03;;;;;;;5.46;57.04;100138.03;4879367;29;20979;-85
2024/01/19 06:47:29;;;;;;;0.98;0.95;;;;;;;5.53;57.07;100141.72;4880294;29;20416;-84
2024/01/19 06:49:54;;;;;;;2.45;2.25;;;;;;;5.63;56.81;100136.34;4880679;29;20949;-85
2024/01/19 06:52:20;;;;;;;0.80;0.80;;;;;;;5.67;56.89;100155.28;4878699;29;20400;-85
2024/01/19 06:54:47;;;;;;;3.25;3.05;;;;;;;5.68;56.90;100163.03;4878802;29;20496;-86
2024/01/19 06:57:13;;;;;;;3.53;3.22;;;;;;;5.73;56.67;100166.03;4876299;29;20771;-88
2024/01/19 06:59:41;;;;;;;1.95;1.55;;;;;;;5.86;56.69;100149.84;4883993;29;20981;-84
2024/01/19 07:02:17;;;;;;;1.25;1.25;;;;;;;6.05;56.51;100155.94;4877308;29;20504;-85
2024/01/19 07:04:48;;;;;;;1.70;1.43;;;;;;;6.05;56.12;100155.94;4878537;29;20936;-84
2024/01/19 07:07:13;;;;;;;0.43;0.43;;;;;;;6.07;55.93;100146.09;4884235;29;20437;-86
2024/01/19 07:09:39;;;;;;;1.20;1.10;;;;;;;6.20;56.51;100151.75;4861324;29;20613;-85
2024/01/19 07:12:08;;;;;;;1.40;1.25;;;;;;;6.21;56.19;100152.56;4875806;29;20421;-85
2024/01/19 07:14:38;;;;;;;1.88;1.65;;;;;;;6.15;56.57;100148.75;4874141;29;20801;-85
2024/01/19 07:17:07;;;;;;;0.87;0.87;;;;;;;6.24;56.31;100147.81;4858328;29;20409;-83
2024/01/19 07:19:35;;;;;;;1.75;1.25;;;;;;;6.33;56.10;100146.06;4859389;29;20389;-85
2024/01/19 07:22:06;;;;;;;1.23;1.20;;;;;;;6.31;56.50;100143.59;4861118;29;20501;-86
2024/01/19 07:24:35;;;;;;;0.88;0.77;;;;;;;6.32;56.41;100152.34;4860685;29;20524;-85
2024/01/19 07:27:10;;;;;;;0.90;0.80;;;;;;;6.29;56.32;100150.00;4863337;29;20432;-86
2024/01/19 07:29:35;;;;;;;1.58;1.27;;;;;;;6.37;56.34;100167.66;4859903;29;20458;-85
2024/01/19 07:32:06;;;;;;;2.38;1.92;;;;;;;6.30;56.35;100159.53;4859032;29;20405;-84
2024/01/19 07:34:32;;;;;;;1.10;1.10;;;;;;;6.29;56.58;100160.53;4859479;29;20823;-85
2024/01/19 07:37:03;;;;;;;1.90;1.80;;;;;;;6.23;56.47;100159.34;4859318;29;20906;-84
2024/01/19 07:39:29;;;;;;;1.63;1.50;;;;;;;6.28;56.69;100149.19;4859840;29;20438;-85
2024/01/19 07:41:57;;;;;;;3.22;1.30;;;;;;;6.38;56.80;100156.16;4859750;29;20408;-85
2024/01/19 07:44:25;;;;;;;2.22;2.10;;;;;;;6.27;56.52;100151.97;4858916;29;21001;-84
2024/01/19 07:46:53;;;;;;;1.73;1.33;;;;;;;6.41;56.32;100146.13;4858896;29;20397;-85
2024/01/19 07:49:21;;;;;;;2.05;1.75;;;;;;;6.30;56.24;100155.13;4858538;29;20413;-85
2024/01/19 07:51:50;;;;;;;1.85;1.75;;;;;;;6.19;56.87;100151.91;4860348;29;20433;-86
2024/01/19 07:54:20;;;;;;;1.33;1.23;;;;;;;6.22;56.68;100155.06;4858053;29;20398;-84
2024/01/19 07:56:48;;;;;;;1.20;1.02;;;;;;;6.01;56.85;100162.47;4857560;29;20413;-85
2024/01/19 07:59:16;;;;;;;1.52;1.42;;;;;;;6.10;57.10;100157.13;4861463;29;20394;-86
2024/01/19 08:01:51;;;;;;;1.20;1.15;;;;;;;6.25;56.86;100151.31;4861233;29;20404;-84
2024/01/19 08:04:20;;;;;;;0.90;0.90;;;;;;;6.35;56.71;100156.44;4860547;29;20493;-86
2024/01/19 08:06:49;;;;;;;0.50;0.50;;;;;;;6.45;56.51;100158.00;4872845;29;20430;-83
2024/01/19 08:09:20;;;;;;;0.90;0.90;;;;;;;6.50;56.18;100150.44;4861126;29;20488;-85
2024/01/19 08:11:48;;;;;;;0.80;0.55;;;;;;;6.63;56.10;100149.19;4860747;29;20473;-85
2024/01/19 08:14:16;;;;;;;1.10;1.00;;;;;;;6.82;55.80;100156.81;4860100;29;20412;-85
2024/01/19 08:16:43;;;;;;;0.43;0.43;;;;;;;6.93;55.61;100160.97;4859789;29;20412;-85
2024/01/19 08:19:16;;;;;;;1.30;0.80;;;;;;;7.01;55.43;100158.38;4859783;29;20562;-85
2024/01/19 08:21:42;;;;;;;0.65;0.60;;;;;;;7.02;55.49;100161.81;4858626;29;20976;-84
2024/01/19 08:24:12;;;;;;;0.65;0.65;;;;;;;7.17;55.73;100173.41;4861856;29;20488;-84
2024/01/19 08:26:40;;;;;;;1.55;1.17;;;;;;;7.29;55.61;100171.28;4864267;29;20412;-84
2024/01/19 08:29:09;;;;;;;1.33;1.23;;;;;;;7.36;55.39;100166.19;4859561;29;20424;-85
2024/01/19 08:31:35;;;;;;;1.08;1.08;;;;;;;7.43;55.36;100167.19;4861815;29;20473;-89
2024/01/19 08:34:13;;;;;;;1.15;1.05;;;;;;;7.47;55.33;100161.44;4861495;29;20413;-84
2024/01/19 08:36:45;;;;;;;0.60;0.60;;;;;;;7.54;55.22;100158.94;4859402;29;20912;-85
2024/01/19 08:39:14;;;;;;;0.82;0.82;;;;;;;7.67;55.20;100155.84;4861367;29;20463;-86
2024/01/19 08:41:43;;;;;;;2.50;1.60;;;;;;;7.77;54.80;100145.94;4859551;29;20401;-85
2024/01/19 08:44:10;;;;;;;1.50;1.40;;;;;;;7.81;54.86;100156.97;4858628;29;20405;-85
2024/01/19 08:46:45;;;;;;;2.05;1.85;;;;;;;7.89;55.14;100166.72;4859583;29;20469;-85
2024/01/19 08:49:11;;;;;;;1.57;1.47;;;;;;;7.94;54.84;100159.97;4858205;29;20477;-84
2024/01/19 08:51:43;;;;;;;1.00;1.00;;;;;;;8.12;54.71;100158.94;4845075;29;20441;-86
2024/01/19 08:54:10;;;;;;;0.53;0.53;;;;;;;8.26;54.00;100158.25;4859977;29;20492;-85
2024/01/19 08:56:41;;;;;;;0.40;0.40;;;;;;;8.43;54.35;100156.44;4878135;29;20406;-85
2024/01/19 08:59:07;;;;;;;1.10;1.00;;;;;;;8.49;54.39;100160.22;4877431;29;20397;-85
2024/01/19 09:01:36;;;;;;;1.00;0.70;;;;;;;8.60;53.83;100154.56;4874008;29;20422;-85
2024/01/19 09:04:07;;;;;;;0.75;0.75;;;;;;;8.66;53.85;100159.16;4859223;29;20410;-85
2024/01/19 09:06:33;;;;;;;1.00;0.95;;;;;;;8.77;54.14;100155.31;4857772;29;20975;-85
2024/01/19 09:09:03;;;;;;;1.10;1.10;;;;;;;8.72;53.92;100158.47;4860160;29;20516;-85
2024/01/19 09:11:38;;;;;;;1.33;1.23;;;;;;;8.83;53.70;100157.25;4860044;29;20409;-86
2024/01/19 09:14:04;;;;;;;0.50;0.50;;;;;;;8.95;53.37;100161.19;4874706;29;20440;-84
2024/01/19 09:16:33;;;;;;;0.68;0.68;;;;;;;9.04;53.53;100163.75;4857862;29;20402;-87
2024/01/19 09:19:01;;;;;;;1.02;0.90;;;;;;;9.09;53.35;100150.84;4859769;29;20449;-86
2024/01/19 09:21:29;;;;;;;2.10;1.35;;;;;;;9.19;53.16;100146.97;4858964;29;20408;-85
2024/01/19 09:24:02;;;;;;;0.50;0.50;;;;;;;9.16;53.15;100138.56;4860576;29;20775;-85
2024/01/19 09:26:28;;;;;;;1.00;0.90;;;;;;;9.18;53.04;100142.72;4858539;29;20466;-84
2024/01/19 09:28:56;;;;;;;0.70;0.70;;;;;;;9.15;52.98;100137.75;4858262;29;20417;-85
2024/01/19 09:31:25;;;;;;;1.30;1.10;;;;;;;9.25;53.09;100145.47;4858431;29;20397;-85
2024/01/19 09:34:00;;;;;;;0.82;0.82;;;;;;;9.33;52.93;100145.41;4857941;29;20438;-86
2024/01/19 09:36:25;;;;;;;1.00;1.00;;;;;;;9.35;52.80;100139.97;4859434;29;20418;-84
2024/01/19 09:38:51;;;;;;;1.53;1.10;;;;;;;9.36;52.82;100131.84;4861656;29;20398;-85
2024/01/19 09:41:38;;;;;;;1.37;1.27;;;;;;;9.45;52.69;100123.84;4858267;29;20401;-85
2024/01/19 09:44:09;;;;;;;0.98;0.95;;;;;;;9.51;52.24;100139.84;4860000;29;20457;-85
2024/01/19 09:46:53;;;;;;;1.58;1.48;;;;;;;9.40;52.46;100132.31;4858955;29;20952;-85
2024/01/19 09:49:40;;;;;;;1.02;0.93;;;;;;;9.57;52.09;100146.25;4860025;29;20445;-85
2024/01/19 09:52:40;;;;;;;0.95;0.85;;;;;;;9.47;52.06;100127.13;4875278;29;20456;-85
2024/01/19 09:55:08;;;;;;;14.60;2.47;;;;;;;9.61;51.59;100122.88;4859084;29;20397;-84
2024/01/19 09:57:37;;;;;;;1.00;0.88;;;;;;;9.73;52.04;100122.28;4856991;29;20401;-85
2024/01/19 10:00:06;;;;;;;1.33;1.23;;;;;;;9.77;51.68;100114.81;4857584;29;20393;-85
2024/01/19 10:02:33;;;;;;;1.52;1.42;;;;;;;9.83;51.62;100110.63;4858606;29;20396;-86
2024/01/19 10:04:59;;;;;;;2.55;1.25;;;;;;;9.96;51.35;100110.84;4842486;29;20412;-85
2024/01/19 10:07:27;;;;;;;2.90;1.80;;;;;;;9.91;51.59;100107.91;4861464;29;20441;-83
2024/01/19 10:09:57;;;;;;;1.20;1.10;;;;;;;9.99;51.30;100099.84;4868045;29;20942;-84
2024/01/19 10:12:24;;;;;;;1.67;1.57;;;;;;;10.07;51.16;100097.13;4858353;29;20498;-88
2024/01/19 10:14:49;;;;;;;1.42;1.30;;;;;;;10.06;51.16;100092.03;4874595;29;20417;-85
2024/01/19 10:17:21;;;;;;;1.23;1.20;;;;;;;10.09;50.95;100081.06;4862412;29;20401;-86
2024/01/19 10:19:50;;;;;;;1.88;1.77;;;;;;;10.11;50.61;100085.16;4864169;29;20401;-86
2024/01/19 10:22:28;;;;;;;0.90;0.90;;;;;;;10.14;50.36;100070.75;4852409;29;20420;-85
2024/01/19 10:25:03;;;;;;;0.60;0.60;;;;;;;10.26;50.56;100087.84;4850600;29;20496;-85
2024/01/19 10:27:50;;;;;;;0.80;0.80;;;;;;;10.45;50.11;100080.34;4864291;29;20429;-84
2024/01/19 10:30:22;;;;;;;0.73;0.70;;;;;;;10.52;50.15;100082.06;4873752;29;20402;-86
2024/01/19 10:32:51;;;;;;;0.73;0.65;;;;;;;10.59;49.92;100074.22;4881096;29;20500;-86
2024/01/19 10:35:24;;;;;;;1.13;0.80;;;;;;;10.71;49.75;100080.69;4851008;29;20407;-85
2024/01/19 10:38:02;;;;;;;1.15;1.05;;;;;;;10.84;50.11;100076.50;4865938;29;20938;-85
2024/01/19 10:40:32;;;;;;;1.17;1.08;;;;;;;10.87;49.90;100076.97;4869391;29;20426;-84
2024/01/19 10:42:59;;;;;;;1.70;1.27;;;;;;;11.01;50.10;100067.31;4884025;29;20455;-88
2024/01/19 10:45:34;;;;;;;1.20;1.00;;;;;;;11.14;49.75;100052.56;4880923;29;20495;-85
2024/01/19 10:48:03;;;;;;;1.63;1.15;;;;;;;11.19;49.36;100069.53;4862143;29;20416;-84
2024/01/19 10:50:31;;;;;;;1.80;0.90;;;;;;;11.27;49.68;100072.06;4881177;29;20435;-87
2024/01/19 10:53:00;;;;;;;1.40;0.93;;;;;;;11.37;49.56;100068.28;4848875;29;21125;-86
2024/01/19 10:55:29;;;;;;;1.38;1.05;;;;;;;11.48;49.35;100047.31;4864315;29;20831;-85
2024/01/19 10:58:32;;;;;;;1.30;0.73;;;;;;;11.47;48.86;100047.53;4878458;29;20468;-86
2024/01/19 11:01:14;;;;;;;1.27;1.17;;;;;;;11.60;49.05;100046.81;4877943;29;20479;-86
2024/01/19 11:03:43;;;;;;;0.70;0.70;;;;;;;11.76;49.07;100048.38;4861559;29;20489;-88
2024/01/19 11:06:14;;;;;;;1.52;1.42;;;;;;;11.79;49.29;100037.34;4862416;29;20436;-86
2024/01/19 11:08:43;;;;;;;0.80;0.77;;;;;;;11.74;49.15;100045.91;4860354;29;20828;-85
2024/01/19 11:11:09;;;;;;;0.73;0.57;;;;;;;11.74;49.13;100040.59;4860651;29;20481;-87
2024/01/19 11:13:46;;;;;;;0.82;0.63;;;;;;;11.78;49.42;100055.13;4859284;29;20662;-85
2024/01/19 11:16:18;;;;;;;1.40;1.30;;;;;;;11.80;49.56;100041.66;4860770;29;20414;-86
2024/01/19 11:18:45;;;;;;;1.20;1.07;;;;;;;11.84;50.50;100049.00;4860000;29;20406;-86
2024/01/19 11:21:13;;;;;;;1.25;1.15;;;;;;;11.86;50.36;100032.91;4860578;29;20393;-86
2024/01/19 11:23:41;;;;;;;1.53;1.43;;;;;;;11.81;50.03;100036.16;4861041;29;20786;-85
2024/01/19 11:26:14;;;;;;;1.92;1.80;;;;;;;11.84;50.24;100038.38;4877031;29;20469;-84
2024/01/19 11:29:06;;;;;;;1.20;1.10;;;;;;;11.98;50.37;100035.88;4862868;29;20945;-87
2024/01/19 11:31:36;;;;;;;2.50;1.70;;;;;;;12.09;50.20;100027.34;4865097;29;20409;-85
2024/01/19 11:34:02;;;;;;;1.10;1.00;;;;;;;12.14;50.55;100032.06;4865781;29;20401;-85
2024/01/19 11:36:40;;;;;;;0.68;0.68;;;;;;;12.33;50.33;100041.94;4862784;29;20751;-87
2024/01/19 11:39:07;;;;;;;1.60;1.10;;;;;;;12.34;50.45;100048.09;4864430;29;20457;-87
2024/01/19 11:41:35;;;;;;;1.13;0.88;;;;;;;12.44;50.34;100045.88;4861116;29;20413;-87
2024/01/19 11:44:07;;;;;;;0.85;0.70;;;;;;;12.42;50.50;100040.78;4875604;29;20416;-86
2024/01/19 11:46:47;;;;;;;1.65;1.42;;;;;;;12.41;50.74;100041.78;4861063;29;20409;-87
2024/01/19 11:49:32;;;;;;;1.25;1.15;;;;;;;12.49;51.02;100040.78;4862990;29;20482;-84
2024/01/19 11:52:21;;;;;;;1.42;0.80;;;;;;;12.57;51.06;100045.13;4876546;29;20401;-86
2024/01/19 11:54:50;;;;;;;1.83;0.75;;;;;;;12.63;51.03;100036.34;4852355;29;20397;-88
2024/01/19 11:57:25;;;;;;;0.63;0.60;;;;;;;12.58;51.16;100038.78;4861466;29;20405;-87
2024/01/19 11:59:55;;;;;;;1.80;0.90;;;;;;;12.60;51.23;100042.91;4858478;29;20422;-87
2024/01/19 12:02:34;;;;;;;1.00;0.90;;;;;;;12.63;51.15;100039.00;4862503;29;20848;-86
2024/01/19 12:05:06;;;;;;;2.63;1.50;;;;;;;12.57;51.87;100034.50;4862715;29;20476;-88
2024/01/19 12:07:41;;;;;;;2.33;1.77;;;;;;;12.66;51.83;100033.28;4861078;29;20433;-86
2024/01/19 12:10:20;;;;;;;1.25;0.80;;;;;;;12.79;51.92;100035.16;4862525;29;20405;-86
2024/01/19 12:12:50;;;;;;;1.23;0.82;;;;;;;12.90;51.37;100036.41;4868836;29;20941;-84
2024/01/19 12:15:18;;;;;;;0.98;0.98;;;;;;;12.96;51.70;100035.59;4867323;29;20823;-86
2024/01/19 12:17:44;;;;;;;1.60;1.50;;;;;;;12.96;51.68;100028.44;4867049;29;20405;-87
2024/01/19 12:20:27;;;;;;;4.35;1.83;;;;;;;13.13;51.80;100033.38;4865535;29;20769;-85